Consuegra, Spain
Current Conditions -  °F | °C
As of 10:00 PM on Tuesday 25 Nov 2014 (Local Time) from LEAO Reporting Station
Scattered Clouds Scattered Clouds  
Wind Chill: 12°   Ceiling: Unl
Heat Index: 12°   Visibility: 6mi
Dew Point: 11°   Wind: 1mph
Humidity: 94%   Direction: NA
Pressure: 30.06"   Gusts: NA
Location:  39.46°N, 3.61°W
Report Text: LEAO 252100Z VRB01KT 9999 SCT025 12/11 Q1018
Loading
Personal Weather Stations






























Interactive Weather Map New forecast layout! Learn more

10-Day Weather Forecast

Advertisements
Track Severe Weather on mobile